Time;durP1;ratioP1;P1;durP2;ratioP2;P2;SDS_P1;SDS_P2;PMS_P1;PMS_P2;Temp;Humidity;BMP_temperature;BMP_pressure;BME280_temperature;BME280_humidity;BME280_pressure;Samples;Min_cycle;Max_cycle;Signal;HPM_P1;HPM_P2
2023/01/08 00:01:52;;;;;;;;;2.25;1.00;;;;;;;;5063285;28;46230;-69
2023/01/08 00:04:18;;;;;;;;;1.00;1.00;;;;;;;;5063372;28;45354;-69
2023/01/08 00:06:43;;;;;;;;;2.50;0.00;;;;;;;;5063541;28;45313;-69
2023/01/08 00:09:09;;;;;;;;;1.00;1.00;;;;;;;;5063086;27;45905;-69
2023/01/08 00:11:34;;;;;;;;;1.00;1.00;;;;;;;;5071360;27;46320;-69
2023/01/08 00:14:00;;;;;;;;;0.50;0.00;;;;;;;;5083553;28;45245;-69
2023/01/08 00:16:25;;;;;;;;;8.25;6.50;;;;;;;;5083684;28;45222;-69
2023/01/08 00:18:50;;;;;;;;;0.50;0.50;;;;;;;;5083714;28;45313;-69
2023/01/08 00:21:15;;;;;;;;;1.00;1.00;;;;;;;;5083177;27;45543;-69
2023/01/08 00:23:41;;;;;;;;;2.00;1.00;;;;;;;;5083274;28;45301;-69
2023/01/08 00:26:08;;;;;;;;;2.00;0.00;;;;;;;;5083268;28;45419;-68
2023/01/08 00:28:33;;;;;;;;;2.00;0.00;;;;;;;;5083218;27;45391;-69
2023/01/08 00:31:00;;;;;;;;;3.00;0.00;;;;;;;;5083128;28;46543;-69
2023/01/08 00:33:25;;;;;;;;;1.50;1.50;;;;;;;;5083172;27;45421;-69
2023/01/08 00:35:50;;;;;;;;;1.00;1.00;;;;;;;;5083437;27;45867;-68
2023/01/08 00:38:15;;;;;;;;;1.50;1.50;;;;;;;;5082863;28;45629;-68
2023/01/08 00:40:41;;;;;;;;;0.00;0.00;;;;;;;;5082721;27;46453;-69
2023/01/08 00:43:06;;;;;;;;;3.75;1.00;;;;;;;;5083044;27;45457;-69
2023/01/08 00:45:31;;;;;;;;;1.00;1.00;;;;;;;;5061403;28;45471;-69
2023/01/08 00:47:57;;;;;;;;;1.00;1.00;;;;;;;;5081905;28;45379;-68
2023/01/08 00:50:22;;;;;;;;;3.00;1.00;;;;;;;;5078876;28;45452;-68
2023/01/08 00:52:48;;;;;;;;;0.00;0.00;;;;;;;;5079766;28;45894;-68
2023/01/08 00:55:13;;;;;;;;;2.00;1.00;;;;;;;;5079814;28;45312;-68
2023/01/08 00:57:38;;;;;;;;;2.00;2.00;;;;;;;;5079707;28;45468;-69
2023/01/08 01:00:05;;;;;;;;;4.50;2.00;;;;;;;;5079510;28;45510;-69
2023/01/08 01:02:30;;;;;;;;;3.00;1.00;;;;;;;;5078326;27;45459;-68
2023/01/08 01:04:55;;;;;;;;;1.00;1.00;;;;;;;;5079898;28;45352;-68
2023/01/08 01:07:21;;;;;;;;;2.00;1.00;;;;;;;;5079718;27;45436;-68
2023/01/08 01:09:46;;;;;;;;;1.00;1.00;;;;;;;;5079241;28;45672;-69
2023/01/08 01:12:11;;;;;;;;;1.50;1.00;;;;;;;;5079179;27;45503;-68
2023/01/08 01:14:36;;;;;;;;;1.75;1.00;;;;;;;;5079261;28;45375;-68
2023/01/08 01:17:02;;;;;;;;;1.00;1.00;;;;;;;;5079694;28;45409;-68
2023/01/08 01:19:27;;;;;;;;;3.00;2.00;;;;;;;;5077638;27;46426;-68
2023/01/08 01:21:52;;;;;;;;;0.75;0.75;;;;;;;;5079158;28;45361;-68
2023/01/08 01:24:17;;;;;;;;;3.00;0.50;;;;;;;;5079564;27;45282;-68
2023/01/08 01:26:43;;;;;;;;;3.75;1.00;;;;;;;;5079195;28;45370;-68
2023/01/08 01:29:08;;;;;;;;;1.50;1.50;;;;;;;;5078990;28;45590;-68
2023/01/08 01:31:33;;;;;;;;;4.00;1.25;;;;;;;;5079058;28;45458;-69
2023/01/08 01:33:59;;;;;;;;;2.25;1.00;;;;;;;;5079326;28;45266;-69
2023/01/08 01:36:24;;;;;;;;;5.00;1.00;;;;;;;;5064451;27;45496;-69
2023/01/08 01:38:50;;;;;;;;;2.25;1.25;;;;;;;;5058328;28;46394;-70
2023/01/08 01:41:21;;;;;;;;;2.50;1.00;;;;;;;;5058686;28;45396;-69
2023/01/08 01:43:47;;;;;;;;;1.25;1.00;;;;;;;;5058334;28;45500;-69
2023/01/08 01:46:32;;;;;;;;;2.00;1.00;;;;;;;;5066716;27;45562;-68
2023/01/08 01:49:00;;;;;;;;;1.25;1.25;;;;;;;;5078041;28;45587;-68
2023/01/08 01:51:29;;;;;;;;;0.00;0.00;;;;;;;;5078957;28;45471;-68
2023/01/08 01:53:55;;;;;;;;;2.00;1.00;;;;;;;;5078807;27;45317;-69
2023/01/08 01:56:20;;;;;;;;;1.00;1.00;;;;;;;;5079197;28;45349;-68
2023/01/08 01:58:45;;;;;;;;;2.75;0.75;;;;;;;;5078395;27;45341;-69
2023/01/08 02:01:11;;;;;;;;;1.50;1.50;;;;;;;;5077416;28;45416;-69
2023/01/08 02:03:37;;;;;;;;;0.25;0.00;;;;;;;;5078052;27;45372;-69
2023/01/08 02:06:23;;;;;;;;;3.25;3.25;;;;;;;;5078866;27;45324;-69
2023/01/08 02:08:51;;;;;;;;;2.00;2.00;;;;;;;;5067018;27;46742;-68
2023/01/08 02:11:22;;;;;;;;;3.75;0.75;;;;;;;;5078438;28;45427;-69
2023/01/08 02:13:54;;;;;;;;;1.75;1.00;;;;;;;;5078476;28;45316;-69
2023/01/08 02:16:25;;;;;;;;;3.00;1.75;;;;;;;;5078404;28;45368;-69
2023/01/08 02:18:56;;;;;;;;;1.75;1.25;;;;;;;;5078104;27;45474;-69
2023/01/08 02:21:21;;;;;;;;;1.00;1.00;;;;;;;;5059708;27;45486;-69
2023/01/08 02:23:49;;;;;;;;;3.25;0.75;;;;;;;;5058045;28;45309;-69
2023/01/08 02:26:17;;;;;;;;;1.75;0.75;;;;;;;;5058201;28;45386;-68
2023/01/08 02:28:43;;;;;;;;;3.00;2.00;;;;;;;;5057665;28;47125;-69
2023/01/08 02:31:08;;;;;;;;;2.50;0.00;;;;;;;;5057239;27;45348;-69
2023/01/08 02:33:34;;;;;;;;;0.50;0.50;;;;;;;;5058145;28;45415;-69
2023/01/08 02:36:11;;;;;;;;;2.00;1.00;;;;;;;;5058093;28;45456;-68
2023/01/08 02:38:41;;;;;;;;;1.25;1.25;;;;;;;;5057315;28;45430;-69
2023/01/08 02:41:09;;;;;;;;;0.00;0.00;;;;;;;;5057827;28;45411;-69
2023/01/08 02:43:40;;;;;;;;;1.25;0.00;;;;;;;;5057755;28;45371;-69
2023/01/08 02:46:10;;;;;;;;;2.75;1.00;;;;;;;;5057706;28;45409;-69
2023/01/08 02:48:39;;;;;;;;;0.75;0.50;;;;;;;;5057187;27;46460;-69
2023/01/08 02:51:10;;;;;;;;;0.00;0.00;;;;;;;;5057549;28;45860;-68
2023/01/08 02:53:39;;;;;;;;;2.50;0.00;;;;;;;;5057617;28;45286;-69
2023/01/08 02:56:07;;;;;;;;;0.00;0.00;;;;;;;;5057981;28;45309;-69
2023/01/08 02:58:34;;;;;;;;;1.00;0.00;;;;;;;;5057027;28;46370;-68
2023/01/08 03:01:03;;;;;;;;;0.00;0.00;;;;;;;;5057347;28;45377;-69
2023/01/08 03:03:29;;;;;;;;;1.00;0.00;;;;;;;;5063260;27;45294;-69
2023/01/08 03:05:58;;;;;;;;;0.00;0.00;;;;;;;;5078024;28;45475;-68
2023/01/08 03:08:24;;;;;;;;;4.00;1.00;;;;;;;;5077154;28;47238;-68
2023/01/08 03:10:56;;;;;;;;;4.00;1.00;;;;;;;;5077174;27;45384;-68
2023/01/08 03:13:36;;;;;;;;;0.00;0.00;;;;;;;;5076886;28;45658;-68
2023/01/08 03:16:05;;;;;;;;;1.00;0.00;;;;;;;;5069774;27;45335;-69
2023/01/08 03:18:34;;;;;;;;;0.00;0.00;;;;;;;;5057053;28;46415;-69
2023/01/08 03:21:00;;;;;;;;;5.00;0.50;;;;;;;;5056913;28;45447;-69
2023/01/08 03:23:26;;;;;;;;;0.00;0.00;;;;;;;;5057183;28;45448;-68
2023/01/08 03:25:52;;;;;;;;;0.00;0.00;;;;;;;;5057476;28;45290;-68
2023/01/08 03:28:21;;;;;;;;;0.50;0.00;;;;;;;;5056707;28;45446;-69
2023/01/08 03:30:48;;;;;;;;;1.25;0.00;;;;;;;;5056007;28;45393;-68
2023/01/08 03:33:14;;;;;;;;;0.50;0.25;;;;;;;;5057178;28;45443;-69
2023/01/08 03:35:41;;;;;;;;;2.00;1.00;;;;;;;;5056982;28;45375;-68
2023/01/08 03:38:14;;;;;;;;;2.75;1.00;;;;;;;;5056918;28;46464;-68
2023/01/08 03:40:42;;;;;;;;;0.00;0.00;;;;;;;;5057037;28;45514;-68
2023/01/08 03:43:08;;;;;;;;;2.00;0.00;;;;;;;;5056855;28;45332;-68
2023/01/08 03:45:35;;;;;;;;;0.00;0.00;;;;;;;;5072912;28;45235;-68
2023/01/08 03:48:02;;;;;;;;;1.00;0.00;;;;;;;;5056471;27;46558;-68
2023/01/08 03:50:29;;;;;;;;;3.50;0.00;;;;;;;;5056516;28;45318;-69
2023/01/08 03:52:54;;;;;;;;;2.00;0.00;;;;;;;;5056929;28;45468;-68
2023/01/08 03:55:19;;;;;;;;;0.00;0.00;;;;;;;;5056771;28;45415;-68
2023/01/08 03:57:44;;;;;;;;;0.00;0.00;;;;;;;;5056393;28;47205;-68
2023/01/08 04:00:10;;;;;;;;;4.75;1.00;;;;;;;;5056348;28;45420;-68
2023/01/08 04:02:35;;;;;;;;;0.25;0.00;;;;;;;;5056322;28;45518;-68
2023/01/08 04:05:01;;;;;;;;;0.25;0.00;;;;;;;;5056855;28;45388;-68
2023/01/08 04:07:26;;;;;;;;;1.00;0.75;;;;;;;;5056283;28;45439;-69
2023/01/08 04:09:51;;;;;;;;;2.75;0.00;;;;;;;;5056469;28;45410;-68
2023/01/08 04:12:17;;;;;;;;;1.00;1.00;;;;;;;;5056369;28;45246;-68
2023/01/08 04:14:42;;;;;;;;;1.25;0.75;;;;;;;;5056478;28;45318;-68
2023/01/08 04:17:10;;;;;;;;;3.50;0.00;;;;;;;;5055694;28;46421;-68
2023/01/08 04:19:35;;;;;;;;;1.50;0.00;;;;;;;;5055878;28;45468;-68
2023/01/08 04:22:00;;;;;;;;;1.00;1.00;;;;;;;;5056519;28;45348;-68
2023/01/08 04:24:25;;;;;;;;;2.00;0.00;;;;;;;;5057904;28;45594;-68
2023/01/08 04:26:50;;;;;;;;;0.00;0.00;;;;;;;;5059433;28;46219;-68
2023/01/08 04:29:16;;;;;;;;;1.25;0.00;;;;;;;;5059514;28;45377;-68
2023/01/08 04:31:41;;;;;;;;;4.00;0.00;;;;;;;;5059662;28;45313;-68
2023/01/08 04:34:06;;;;;;;;;0.00;0.00;;;;;;;;5078427;27;45450;-68
2023/01/08 04:36:31;;;;;;;;;0.00;0.00;;;;;;;;5079612;28;46396;-69
2023/01/08 04:38:57;;;;;;;;;0.00;0.00;;;;;;;;5079547;27;45355;-68
2023/01/08 04:41:22;;;;;;;;;0.00;0.00;;;;;;;;5079907;27;45388;-68
2023/01/08 04:43:47;;;;;;;;;0.00;0.00;;;;;;;;5077797;27;45530;-68
2023/01/08 04:46:12;;;;;;;;;0.00;0.00;;;;;;;;5074530;27;46166;-68
2023/01/08 04:48:38;;;;;;;;;0.50;0.00;;;;;;;;5059269;28;45453;-69
2023/01/08 04:51:03;;;;;;;;;2.50;0.00;;;;;;;;5059356;28;45583;-69
2023/01/08 04:53:29;;;;;;;;;2.00;0.75;;;;;;;;5059511;28;45391;-69
2023/01/08 04:55:54;;;;;;;;;3.25;1.00;;;;;;;;5058953;28;45474;-68
2023/01/08 04:58:19;;;;;;;;;3.50;0.50;;;;;;;;5059076;28;45432;-68
2023/01/08 05:00:44;;;;;;;;;1.75;0.00;;;;;;;;5059067;28;45364;-68
2023/01/08 05:03:10;;;;;;;;;4.00;0.00;;;;;;;;5059636;27;45325;-68
2023/01/08 05:05:35;;;;;;;;;0.00;0.00;;;;;;;;5059953;27;47130;-68
2023/01/08 05:08:00;;;;;;;;;2.25;0.00;;;;;;;;5058983;28;45820;-69
2023/01/08 05:10:26;;;;;;;;;0.25;0.00;;;;;;;;5059324;28;45514;-69
2023/01/08 05:12:51;;;;;;;;;2.25;0.00;;;;;;;;5059202;28;45824;-68
2023/01/08 05:15:16;;;;;;;;;1.50;0.00;;;;;;;;5058807;28;46591;-69
2023/01/08 05:17:41;;;;;;;;;1.75;0.00;;;;;;;;5058647;28;45312;-68
2023/01/08 05:20:07;;;;;;;;;0.00;0.00;;;;;;;;5058721;27;45402;-68
2023/01/08 05:22:33;;;;;;;;;0.50;0.50;;;;;;;;5059056;28;45272;-69
2023/01/08 05:24:58;;;;;;;;;2.00;0.50;;;;;;;;5058633;28;46215;-68
2023/01/08 05:27:23;;;;;;;;;1.50;0.00;;;;;;;;5058953;28;45412;-69
2023/01/08 05:29:49;;;;;;;;;4.25;0.25;;;;;;;;5058350;28;45503;-69
2023/01/08 05:32:16;;;;;;;;;0.00;0.00;;;;;;;;5059058;28;45470;-69
2023/01/08 05:34:41;;;;;;;;;3.00;0.00;;;;;;;;5058243;28;47111;-68
2023/01/08 05:37:06;;;;;;;;;0.00;0.00;;;;;;;;5065856;27;45430;-69
2023/01/08 05:39:32;;;;;;;;;2.50;0.50;;;;;;;;5079028;28;45405;-68
2023/01/08 05:41:57;;;;;;;;;2.00;0.00;;;;;;;;5078989;28;45320;-69
2023/01/08 05:44:22;;;;;;;;;6.50;5.75;;;;;;;;5078594;28;45586;-68
2023/01/08 05:46:47;;;;;;;;;4.00;2.00;;;;;;;;5078547;27;45466;-68
2023/01/08 05:49:12;;;;;;;;;1.00;0.00;;;;;;;;5078798;28;45399;-68
2023/01/08 05:51:38;;;;;;;;;0.00;0.00;;;;;;;;5079046;28;45364;-69
2023/01/08 05:54:03;;;;;;;;;1.00;0.25;;;;;;;;5076434;27;45520;-68
2023/01/08 05:56:28;;;;;;;;;3.25;1.00;;;;;;;;5078551;28;45393;-69
2023/01/08 05:58:54;;;;;;;;;1.00;0.50;;;;;;;;5078611;28;45352;-68
2023/01/08 06:01:19;;;;;;;;;1.25;0.25;;;;;;;;5078481;28;45213;-68
2023/01/08 06:03:44;;;;;;;;;2.75;1.00;;;;;;;;5078610;28;45505;-68
2023/01/08 06:06:10;;;;;;;;;0.00;0.00;;;;;;;;5078234;28;45443;-69
2023/01/08 06:08:35;;;;;;;;;3.25;1.00;;;;;;;;5078506;28;45805;-68
2023/01/08 06:11:01;;;;;;;;;2.00;1.75;;;;;;;;5077709;27;45379;-68
2023/01/08 06:13:27;;;;;;;;;1.00;1.00;;;;;;;;5078058;27;45462;-69
2023/01/08 06:15:52;;;;;;;;;0.00;0.00;;;;;;;;5078210;28;45393;-69
2023/01/08 06:18:18;;;;;;;;;1.00;0.50;;;;;;;;5078181;28;45390;-68
2023/01/08 06:20:43;;;;;;;;;3.00;0.00;;;;;;;;5078468;28;45183;-68
2023/01/08 06:23:08;;;;;;;;;1.25;0.00;;;;;;;;5078127;28;45462;-68
2023/01/08 06:25:34;;;;;;;;;3.00;1.00;;;;;;;;5077985;28;45410;-69
2023/01/08 06:27:59;;;;;;;;;2.75;0.00;;;;;;;;5070918;27;45262;-69
2023/01/08 06:30:24;;;;;;;;;2.00;0.00;;;;;;;;5057476;28;45925;-68
2023/01/08 06:32:54;;;;;;;;;0.00;0.00;;;;;;;;5057453;28;46096;-68
2023/01/08 06:35:19;;;;;;;;;1.00;1.00;;;;;;;;5057643;28;45396;-68
2023/01/08 06:37:44;;;;;;;;;0.00;0.00;;;;;;;;5057769;28;45402;-68
2023/01/08 06:40:10;;;;;;;;;3.00;0.00;;;;;;;;5058057;28;45441;-68
2023/01/08 06:42:35;;;;;;;;;2.00;1.00;;;;;;;;5057499;27;46183;-69
2023/01/08 06:45:00;;;;;;;;;5.75;1.00;;;;;;;;5057549;28;45652;-68
2023/01/08 06:47:25;;;;;;;;;3.00;1.00;;;;;;;;5056817;28;45400;-69
2023/01/08 06:49:50;;;;;;;;;1.00;0.00;;;;;;;;5057744;28;45390;-69
2023/01/08 06:52:16;;;;;;;;;2.75;1.00;;;;;;;;5057472;28;45348;-69
2023/01/08 06:54:41;;;;;;;;;1.50;1.00;;;;;;;;5057509;28;45171;-68
2023/01/08 06:57:06;;;;;;;;;2.00;0.00;;;;;;;;5057527;28;45358;-69
2023/01/08 06:59:31;;;;;;;;;2.00;1.00;;;;;;;;5058255;27;45376;-69
2023/01/08 07:01:56;;;;;;;;;1.75;0.00;;;;;;;;5063105;28;45432;-69
2023/01/08 07:04:22;;;;;;;;;0.25;0.00;;;;;;;;5059369;28;45426;-69
2023/01/08 07:06:47;;;;;;;;;3.25;1.00;;;;;;;;5077429;28;45500;-68
2023/01/08 07:09:13;;;;;;;;;3.75;2.00;;;;;;;;5077850;28;45467;-69
2023/01/08 07:11:38;;;;;;;;;1.75;1.25;;;;;;;;5077345;28;45346;-69
2023/01/08 07:14:04;;;;;;;;;1.00;1.00;;;;;;;;5077502;28;45668;-69
2023/01/08 07:16:29;;;;;;;;;2.75;0.50;;;;;;;;5076370;27;46996;-69
2023/01/08 07:18:54;;;;;;;;;0.00;0.00;;;;;;;;5077526;28;45633;-69
2023/01/08 07:21:21;;;;;;;;;7.50;1.00;;;;;;;;5077384;28;46390;-69
2023/01/08 07:23:49;;;;;;;;;0.00;0.00;;;;;;;;5077241;28;45987;-68
2023/01/08 07:26:15;;;;;;;;;0.75;0.00;;;;;;;;5077291;28;45434;-69
2023/01/08 07:28:41;;;;;;;;;3.50;3.50;;;;;;;;5077517;27;45483;-69
2023/01/08 07:31:06;;;;;;;;;4.00;4.00;;;;;;;;5075959;27;45322;-69
2023/01/08 07:33:31;;;;;;;;;1.00;1.00;;;;;;;;5077178;28;45378;-69
2023/01/08 07:35:56;;;;;;;;;0.00;0.00;;;;;;;;5077329;28;45433;-69
2023/01/08 07:38:22;;;;;;;;;0.00;0.00;;;;;;;;5077465;28;45434;-69
2023/01/08 07:40:47;;;;;;;;;0.50;0.00;;;;;;;;5077015;28;45543;-68
2023/01/08 07:43:13;;;;;;;;;1.50;1.00;;;;;;;;5076946;28;45415;-68
2023/01/08 07:45:38;;;;;;;;;1.50;0.00;;;;;;;;5060036;27;45526;-68
2023/01/08 07:48:04;;;;;;;;;0.25;0.25;;;;;;;;5056738;28;45504;-69
2023/01/08 07:50:29;;;;;;;;;1.00;0.00;;;;;;;;5056656;28;45476;-69
2023/01/08 07:53:01;;;;;;;;;1.50;0.00;;;;;;;;5056692;28;45407;-68
2023/01/08 07:55:27;;;;;;;;;0.50;0.00;;;;;;;;5056748;28;45388;-69
2023/01/08 07:57:52;;;;;;;;;2.00;1.50;;;;;;;;5057442;28;45732;-69
2023/01/08 08:00:18;;;;;;;;;4.75;2.50;;;;;;;;5059742;27;46654;-69
2023/01/08 08:02:43;;;;;;;;;0.75;0.50;;;;;;;;5060095;28;45463;-68
2023/01/08 08:05:08;;;;;;;;;1.00;1.00;;;;;;;;5060237;28;45352;-69
2023/01/08 08:07:34;;;;;;;;;0.25;0.00;;;;;;;;5060204;28;45480;-69
2023/01/08 08:10:00;;;;;;;;;0.00;0.00;;;;;;;;5060083;28;45387;-69
2023/01/08 08:12:25;;;;;;;;;3.50;2.50;;;;;;;;5059939;28;45254;-69
2023/01/08 08:14:50;;;;;;;;;2.50;1.00;;;;;;;;5060173;28;45217;-69
2023/01/08 08:17:15;;;;;;;;;1.00;1.00;;;;;;;;5059425;28;45431;-69
2023/01/08 08:19:42;;;;;;;;;1.00;0.00;;;;;;;;5059610;28;47072;-69
2023/01/08 08:22:08;;;;;;;;;0.50;0.00;;;;;;;;5059775;28;45436;-69
2023/01/08 08:24:33;;;;;;;;;0.00;0.00;;;;;;;;5059873;28;45412;-68
2023/01/08 08:26:58;;;;;;;;;0.75;0.00;;;;;;;;5060137;28;45299;-68
2023/01/08 08:29:23;;;;;;;;;0.50;0.50;;;;;;;;5059541;28;46272;-69
2023/01/08 08:31:49;;;;;;;;;0.00;0.00;;;;;;;;5068449;28;45259;-68
2023/01/08 08:34:14;;;;;;;;;2.00;0.00;;;;;;;;5079998;28;45280;-68
2023/01/08 08:36:39;;;;;;;;;0.00;0.00;;;;;;;;5080276;28;45439;-69
2023/01/08 08:39:04;;;;;;;;;0.25;0.25;;;;;;;;5079686;27;45475;-69
2023/01/08 08:41:29;;;;;;;;;0.00;0.00;;;;;;;;5079990;28;45871;-69
2023/01/08 08:43:55;;;;;;;;;1.00;0.00;;;;;;;;5079745;27;45388;-69
2023/01/08 08:46:20;;;;;;;;;0.00;0.00;;;;;;;;5064495;27;45301;-69
2023/01/08 08:48:45;;;;;;;;;0.00;0.00;;;;;;;;5059283;28;46044;-68
2023/01/08 08:51:11;;;;;;;;;0.00;0.00;;;;;;;;5059364;28;45297;-68
2023/01/08 08:53:36;;;;;;;;;0.00;0.00;;;;;;;;5059540;28;45424;-69
2023/01/08 08:56:01;;;;;;;;;1.00;0.00;;;;;;;;5059478;28;45290;-69
2023/01/08 08:58:26;;;;;;;;;0.00;0.00;;;;;;;;5059189;28;45392;-68
2023/01/08 09:00:52;;;;;;;;;1.25;0.00;;;;;;;;5059245;28;45235;-69
2023/01/08 09:03:17;;;;;;;;;2.00;0.25;;;;;;;;5074370;27;45573;-69
2023/01/08 09:05:42;;;;;;;;;0.00;0.00;;;;;;;;5079989;28;45364;-69
2023/01/08 09:08:08;;;;;;;;;0.00;0.00;;;;;;;;5079272;28;45470;-69
2023/01/08 09:10:35;;;;;;;;;0.00;0.00;;;;;;;;5078851;28;45372;-69
2023/01/08 09:13:00;;;;;;;;;0.00;0.00;;;;;;;;5061325;28;45280;-68
2023/01/08 09:15:25;;;;;;;;;1.25;0.00;;;;;;;;5079422;28;45564;-68
2023/01/08 09:17:51;;;;;;;;;0.25;0.25;;;;;;;;5070909;27;46347;-69
2023/01/08 09:20:17;;;;;;;;;3.00;0.00;;;;;;;;5058758;28;45953;-68
2023/01/08 09:22:42;;;;;;;;;2.00;0.25;;;;;;;;5059099;28;45504;-69
2023/01/08 09:25:07;;;;;;;;;3.00;0.00;;;;;;;;5059200;28;45365;-69
2023/01/08 09:27:32;;;;;;;;;0.00;0.00;;;;;;;;5058575;28;47503;-69
2023/01/08 09:29:57;;;;;;;;;0.00;0.00;;;;;;;;5058826;28;45699;-69
2023/01/08 09:32:23;;;;;;;;;3.00;0.00;;;;;;;;5058787;28;45400;-69
2023/01/08 09:34:48;;;;;;;;;2.00;0.25;;;;;;;;5058890;28;45492;-69
2023/01/08 09:37:13;;;;;;;;;0.00;0.00;;;;;;;;5076799;28;46689;-69
2023/01/08 09:39:38;;;;;;;;;0.00;0.00;;;;;;;;5078783;27;45433;-69
2023/01/08 09:42:04;;;;;;;;;2.00;0.00;;;;;;;;5078967;28;45491;-68
2023/01/08 09:44:33;;;;;;;;;0.00;0.00;;;;;;;;5078999;27;45484;-69
2023/01/08 09:46:59;;;;;;;;;0.00;0.00;;;;;;;;5078462;28;45341;-68
2023/01/08 09:49:31;;;;;;;;;0.00;0.00;;;;;;;;5078674;28;45452;-69
2023/01/08 09:51:57;;;;;;;;;0.00;0.00;;;;;;;;5077664;27;45346;-70
2023/01/08 09:54:25;;;;;;;;;1.00;1.00;;;;;;;;5079021;28;45432;-70
2023/01/08 09:56:50;;;;;;;;;0.00;0.00;;;;;;;;5078438;28;46198;-69
2023/01/08 09:59:16;;;;;;;;;1.00;1.00;;;;;;;;5078503;28;45348;-70
2023/01/08 10:01:43;;;;;;;;;8.50;6.25;;;;;;;;5078617;28;45441;-68
2023/01/08 10:04:22;;;;;;;;;3.00;3.00;;;;;;;;5078308;27;45528;-70
2023/01/08 10:06:55;;;;;;;;;40.33;34.00;;;;;;;;5078233;28;47021;-69
2023/01/08 10:09:22;;;;;;;;;2.00;0.00;;;;;;;;5059057;27;45432;-70
2023/01/08 10:11:49;;;;;;;;;5.00;0.00;;;;;;;;5058214;28;45335;-69
2023/01/08 10:14:49;;;;;;;;;0.50;0.50;;;;;;;;5058226;28;45630;-69
2023/01/08 10:17:24;;;;;;;;;1.00;0.00;;;;;;;;5015518;28;45704;-69
2023/01/08 10:19:49;;;;;;;;;0.00;0.00;;;;;;;;5015497;28;45344;-69
2023/01/08 10:22:15;;;;;;;;;1.00;1.00;;;;;;;;5014579;28;45513;-69
2023/01/08 10:24:42;;;;;;;;;3.00;0.00;;;;;;;;5028103;28;45400;-69
2023/01/08 10:27:08;;;;;;;;;1.75;0.00;;;;;;;;5035170;28;46438;-69
2023/01/08 10:29:34;;;;;;;;;0.50;0.50;;;;;;;;5035190;28;45447;-69
2023/01/08 10:32:06;;;;;;;;;8.50;5.25;;;;;;;;5035403;28;45584;-69
2023/01/08 10:34:43;;;;;;;;;0.00;0.00;;;;;;;;5035662;28;45394;-69
2023/01/08 10:37:21;;;;;;;;;2.00;0.00;;;;;;;;5035188;28;46657;-69
2023/01/08 10:39:47;;;;;;;;;0.75;0.75;;;;;;;;5034996;28;45499;-69
2023/01/08 10:42:13;;;;;;;;;2.50;2.50;;;;;;;;5034302;28;45958;-69
2023/01/08 10:44:45;;;;;;;;;1.00;1.00;;;;;;;;5035720;28;45547;-69
2023/01/08 10:47:15;;;;;;;;;1.00;0.50;;;;;;;;5034848;28;46838;-69
2023/01/08 10:49:42;;;;;;;;;2.00;2.00;;;;;;;;5032882;28;45437;-69
2023/01/08 10:52:24;;;;;;;;;0.00;0.00;;;;;;;;5054436;28;45391;-70
2023/01/08 10:54:50;;;;;;;;;0.00;0.00;;;;;;;;5057683;28;45346;-69
2023/01/08 10:57:22;;;;;;;;;1.00;1.00;;;;;;;;5057224;28;46051;-69
2023/01/08 10:59:48;;;;;;;;;3.25;1.75;;;;;;;;5057284;28;45392;-69
2023/01/08 11:02:36;;;;;;;;;0.00;0.00;;;;;;;;5057289;28;45576;-70
2023/01/08 11:05:03;;;;;;;;;1.00;1.00;;;;;;;;4975501;28;45388;-69
2023/01/08 11:07:30;;;;;;;;;0.00;0.00;;;;;;;;4989129;28;46511;-69
2023/01/08 11:09:56;;;;;;;;;0.75;0.00;;;;;;;;4995321;28;45345;-69
2023/01/08 11:12:32;;;;;;;;;2.00;0.00;;;;;;;;4995183;28;45587;-69
2023/01/08 11:14:58;;;;;;;;;2.75;2.00;;;;;;;;4995358;28;45887;-69
2023/01/08 11:17:24;;;;;;;;;1.00;1.00;;;;;;;;4994743;28;45667;-70
2023/01/08 11:19:50;;;;;;;;;0.00;0.00;;;;;;;;4994611;28;45380;-70
2023/01/08 11:22:18;;;;;;;;;3.50;1.00;;;;;;;;4993138;28;45437;-69
2023/01/08 11:24:43;;;;;;;;;0.00;0.00;;;;;;;;4975624;28;45312;-69
2023/01/08 11:27:11;;;;;;;;;0.00;0.00;;;;;;;;4975019;28;46740;-69
2023/01/08 11:29:46;;;;;;;;;0.25;0.25;;;;;;;;4969836;28;45597;-70
2023/01/08 11:32:14;;;;;;;;;5.75;2.75;;;;;;;;4994652;28;45371;-71
2023/01/08 11:34:50;;;;;;;;;4.75;1.50;;;;;;;;4994709;28;45397;-69
2023/01/08 11:37:21;;;;;;;;;1.00;0.00;;;;;;;;4994612;28;45397;-70
2023/01/08 11:39:47;;;;;;;;;0.00;0.00;;;;;;;;4994643;28;45510;-69
2023/01/08 11:42:22;;;;;;;;;0.00;0.00;;;;;;;;5041615;28;45398;-69
2023/01/08 11:44:50;;;;;;;;;0.00;0.00;;;;;;;;5071293;27;45826;-70
2023/01/08 11:47:18;;;;;;;;;3.00;1.00;;;;;;;;5056673;28;45652;-75
2023/01/08 11:49:50;;;;;;;;;2.25;1.00;;;;;;;;5056493;28;45423;-73
2023/01/08 11:52:24;;;;;;;;;7.00;6.00;;;;;;;;5056519;28;45371;-70
2023/01/08 11:54:50;;;;;;;;;5.00;3.00;;;;;;;;5056974;28;45425;-68
2023/01/08 11:57:34;;;;;;;;;3.00;0.00;;;;;;;;5056744;28;45372;-67
2023/01/08 12:00:09;;;;;;;;;0.00;0.00;;;;;;;;5068395;28;45497;-71
2023/01/08 12:02:37;;;;;;;;;1.50;0.00;;;;;;;;5056131;28;45399;-68
2023/01/08 12:05:14;;;;;;;;;2.50;1.00;;;;;;;;5056820;28;45451;-67
2023/01/08 12:07:48;;;;;;;;;1.75;1.00;;;;;;;;5056074;27;46813;-67
2023/01/08 12:10:25;;;;;;;;;1.00;1.00;;;;;;;;5056291;28;45349;-68
2023/01/08 12:13:09;;;;;;;;;4.50;3.00;;;;;;;;5056336;28;45451;-68
2023/01/08 12:15:46;;;;;;;;;1.00;1.00;;;;;;;;5056377;28;45424;-70
2023/01/08 12:18:14;;;;;;;;;3.50;1.00;;;;;;;;5056266;28;45580;-70
2023/01/08 12:20:47;;;;;;;;;5.25;3.50;;;;;;;;5056200;28;45391;-71
2023/01/08 12:23:31;;;;;;;;;3.50;2.00;;;;;;;;5056524;28;45408;-67
2023/01/08 12:25:56;;;;;;;;;2.75;1.00;;;;;;;;5056074;27;45448;-68
2023/01/08 12:28:27;;;;;;;;;1.25;1.00;;;;;;;;5056096;28;45704;-68
2023/01/08 12:31:10;;;;;;;;;2.25;1.00;;;;;;;;5055981;28;45342;-70
2023/01/08 12:33:38;;;;;;;;;2.00;2.00;;;;;;;;5056210;28;45441;-69
2023/01/08 12:36:13;;;;;;;;;3.00;1.25;;;;;;;;5056267;28;45361;-69
2023/01/08 12:38:42;;;;;;;;;1.50;1.50;;;;;;;;5055825;28;46204;-70
2023/01/08 12:41:11;;;;;;;;;1.00;1.00;;;;;;;;5055966;28;45309;-69
2023/01/08 12:43:48;;;;;;;;;4.00;2.00;;;;;;;;5055853;27;45420;-69
2023/01/08 12:46:15;;;;;;;;;2.50;1.00;;;;;;;;5059048;28;45403;-70
2023/01/08 12:48:42;;;;;;;;;2.00;2.00;;;;;;;;5059640;28;47295;-70
2023/01/08 12:51:19;;;;;;;;;3.00;2.00;;;;;;;;5078237;28;45456;-69
2023/01/08 12:54:20;;;;;;;;;1.00;1.00;;;;;;;;5078938;27;45441;-68
2023/01/08 12:57:01;;;;;;;;;2.50;1.00;;;;;;;;5012307;28;45812;-69
2023/01/08 12:59:46;;;;;;;;;2.00;0.00;;;;;;;;5005272;28;46449;-69
2023/01/08 13:02:30;;;;;;;;;2.50;0.00;;;;;;;;5016902;28;45464;-69
2023/01/08 13:04:55;;;;;;;;;4.75;3.00;;;;;;;;5001433;28;45447;-69
2023/01/08 13:07:30;;;;;;;;;2.00;1.00;;;;;;;;4997118;28;45556;-70
2023/01/08 13:10:00;;;;;;;;;3.00;1.00;;;;;;;;4996607;28;45464;-69
2023/01/08 13:12:36;;;;;;;;;0.00;0.00;;;;;;;;4997015;28;45434;-69
2023/01/08 13:15:02;;;;;;;;;0.00;0.00;;;;;;;;5016807;28;45453;-69
2023/01/08 13:17:28;;;;;;;;;2.00;0.00;;;;;;;;5009917;28;45307;-69
2023/01/08 13:19:54;;;;;;;;;0.50;0.25;;;;;;;;5009667;28;46503;-69
2023/01/08 13:22:24;;;;;;;;;2.25;1.00;;;;;;;;5016348;28;45504;-69
2023/01/08 13:24:50;;;;;;;;;1.00;1.00;;;;;;;;5016474;28;45396;-69
2023/01/08 13:27:15;;;;;;;;;3.00;1.00;;;;;;;;5016576;28;45744;-68
2023/01/08 13:29:41;;;;;;;;;10.00;8.00;;;;;;;;5017771;28;45882;-69
2023/01/08 13:32:25;;;;;;;;;2.50;1.00;;;;;;;;5058467;27;45321;-69
2023/01/08 13:35:02;;;;;;;;;4.00;1.00;;;;;;;;5058756;28;45388;-69
2023/01/08 13:37:27;;;;;;;;;3.00;1.00;;;;;;;;5058442;28;45389;-69
2023/01/08 13:39:52;;;;;;;;;1.50;1.00;;;;;;;;5070839;27;45585;-69
2023/01/08 13:42:21;;;;;;;;;2.00;1.00;;;;;;;;5085176;27;45510;-69
2023/01/08 13:44:55;;;;;;;;;3.50;0.50;;;;;;;;5085256;27;45488;-69
2023/01/08 13:47:26;;;;;;;;;1.75;1.50;;;;;;;;5084796;27;45438;-70
2023/01/08 13:49:52;;;;;;;;;0.75;0.00;;;;;;;;5088316;27;45454;-70
2023/01/08 13:52:26;;;;;;;;;5.25;0.25;;;;;;;;5090825;27;45538;-69
2023/01/08 13:54:52;;;;;;;;;3.75;0.00;;;;;;;;5098306;27;45708;-69
2023/01/08 13:57:19;;;;;;;;;2.00;2.00;;;;;;;;5090083;27;45452;-70
2023/01/08 13:59:49;;;;;;;;;1.00;0.25;;;;;;;;5089289;27;45332;-69
2023/01/08 14:02:37;;;;;;;;;1.25;0.50;;;;;;;;5077731;28;45472;-69
2023/01/08 14:05:11;;;;;;;;;1.00;1.00;;;;;;;;5083022;27;45488;-69
2023/01/08 14:07:36;;;;;;;;;2.00;1.00;;;;;;;;5075946;27;45396;-69
2023/01/08 14:10:06;;;;;;;;;4.50;3.00;;;;;;;;5080644;27;46222;-69
2023/01/08 14:12:32;;;;;;;;;2.00;2.00;;;;;;;;5084712;27;45783;-69
2023/01/08 14:14:59;;;;;;;;;3.75;3.75;;;;;;;;5083814;27;46654;-69
2023/01/08 14:17:30;;;;;;;;;5.00;2.00;;;;;;;;5082341;27;45869;-69
2023/01/08 14:19:55;;;;;;;;;2.00;1.00;;;;;;;;5082799;27;46494;-68
2023/01/08 14:22:25;;;;;;;;;1.75;1.00;;;;;;;;5098068;27;45493;-69
2023/01/08 14:24:54;;;;;;;;;1.75;1.25;;;;;;;;5089306;27;45316;-69
2023/01/08 14:27:26;;;;;;;;;9.25;9.25;;;;;;;;5077980;27;45406;-68
2023/01/08 14:29:52;;;;;;;;;0.75;0.50;;;;;;;;5081826;27;45568;-68
2023/01/08 14:32:22;;;;;;;;;3.25;1.00;;;;;;;;5078381;27;45530;-68
2023/01/08 14:34:49;;;;;;;;;3.25;1.00;;;;;;;;5084230;27;45406;-68
2023/01/08 14:37:15;;;;;;;;;4.00;1.00;;;;;;;;5083429;27;45178;-69
2023/01/08 14:39:40;;;;;;;;;2.75;1.00;;;;;;;;5078526;27;45536;-69
2023/01/08 14:44:57;;;;;;;;;6.25;2.25;;;;;;;;5084603;27;45352;-69
2023/01/08 14:47:26;;;;;;;;;3.25;1.50;;;;;;;;5091477;27;45410;-69
2023/01/08 14:49:52;;;;;;;;;7.00;2.25;;;;;;;;5080594;27;46830;-68